Time;durP1;ratioP1;P1;durP2;ratioP2;P2;SDS_P1;SDS_P2;PMS_P1;PMS_P2;Temp;Humidity;BMP_temperature;BMP_pressure;BME280_temperature;BME280_humidity;BME280_pressure;Samples;Min_cycle;Max_cycle;Signal;HPM_P1;HPM_P2
2021/09/10 00:02:20;;;;;;;23.17;14.52;;;19.20;99.90;;;;;;4989357;28;20054;-60
2021/09/10 00:04:46;;;;;;;20.98;13.75;;;19.20;99.90;;;;;;4984328;28;20391;-61
2021/09/10 00:07:11;;;;;;;18.80;13.43;;;19.20;99.90;;;;;;4982304;28;20510;-61
2021/09/10 00:09:37;;;;;;;18.60;12.52;;;19.20;99.90;;;;;;4984981;28;20384;-61
2021/09/10 00:12:03;;;;;;;21.60;13.30;;;19.20;99.90;;;;;;4988790;28;20030;-61
2021/09/10 00:14:29;;;;;;;23.27;12.90;;;19.20;99.90;;;;;;4979741;28;20031;-61
2021/09/10 00:16:54;;;;;;;17.45;13.60;;;19.20;99.90;;;;;;4990128;28;20030;-61
2021/09/10 00:19:20;;;;;;;26.70;14.07;;;19.20;99.90;;;;;;4977264;28;20023;-60
2021/09/10 00:21:45;;;;;;;23.38;15.02;;;19.10;99.90;;;;;;4987149;28;20033;-61
2021/09/10 00:24:11;;;;;;;22.67;15.32;;;19.10;99.90;;;;;;4984593;28;20084;-61
2021/09/10 00:26:37;;;;;;;20.80;15.63;;;19.10;99.90;;;;;;4982608;28;20486;-61
2021/09/10 00:29:02;;;;;;;21.92;14.55;;;19.10;99.90;;;;;;4976504;28;20093;-61
2021/09/10 00:31:28;;;;;;;25.75;16.42;;;19.00;99.90;;;;;;4986618;28;20030;-61
2021/09/10 00:33:53;;;;;;;23.40;16.05;;;19.00;99.90;;;;;;4987168;28;20439;-60
2021/09/10 00:36:19;;;;;;;27.52;16.63;;;19.00;99.90;;;;;;4990092;28;20158;-61
2021/09/10 00:38:44;;;;;;;27.27;16.90;;;18.90;99.90;;;;;;4985771;28;20157;-62
2021/09/10 00:41:11;;;;;;;23.92;15.60;;;18.90;99.90;;;;;;4985841;28;20037;-61
2021/09/10 00:43:36;;;;;;;24.90;15.75;;;18.90;99.90;;;;;;4980469;28;20042;-60
2021/09/10 00:46:03;;;;;;;30.42;16.15;;;18.80;99.90;;;;;;4978185;28;20046;-59
2021/09/10 00:48:28;;;;;;;29.15;16.20;;;18.80;99.90;;;;;;4979357;28;20379;-62
2021/09/10 00:50:55;;;;;;;27.60;15.70;;;18.80;99.90;;;;;;4983179;28;20089;-61
2021/09/10 00:53:20;;;;;;;23.85;15.35;;;18.80;99.90;;;;;;4979334;28;20509;-61
2021/09/10 00:55:47;;;;;;;24.02;14.73;;;18.70;99.90;;;;;;4985234;28;20031;-60
2021/09/10 00:58:14;;;;;;;25.75;15.15;;;18.70;99.90;;;;;;4984495;28;20442;-61
2021/09/10 01:00:39;;;;;;;34.92;17.33;;;18.70;99.90;;;;;;4989071;28;20018;-61
2021/09/10 01:03:05;;;;;;;25.25;16.40;;;18.60;99.90;;;;;;5018870;23;20102;-61
2021/09/10 01:05:30;;;;;;;20.88;16.85;;;18.60;99.90;;;;;;5005763;28;20022;-62
2021/09/10 01:08:00;;;;;;;25.50;16.83;;;18.60;99.90;;;;;;5003977;28;20773;-60
2021/09/10 01:10:27;;;;;;;22.08;16.75;;;18.60;99.90;;;;;;5003239;28;20036;-61
2021/09/10 01:12:54;;;;;;;27.55;18.45;;;18.50;99.90;;;;;;4999097;28;20060;-61
2021/09/10 01:15:22;;;;;;;28.70;17.08;;;18.50;99.90;;;;;;4991199;28;20481;-61
2021/09/10 01:17:47;;;;;;;32.78;17.75;;;18.50;99.90;;;;;;4996570;28;20030;-61
2021/09/10 01:20:13;;;;;;;29.15;17.42;;;18.50;99.90;;;;;;4991711;28;20039;-60
2021/09/10 01:22:39;;;;;;;35.47;19.67;;;18.50;99.90;;;;;;4992701;28;20400;-61
2021/09/10 01:25:13;;;;;;;30.42;18.25;;;18.50;99.90;;;;;;4996625;28;20054;-59
2021/09/10 01:28:01;;;;;;;31.33;17.75;;;18.50;99.90;;;;;;4999333;28;20101;-62
2021/09/10 01:30:32;;;;;;;34.80;19.10;;;18.50;99.90;;;;;;4995849;28;20030;-60
2021/09/10 01:32:59;;;;;;;26.67;17.77;;;18.50;99.90;;;;;;4976474;28;20462;-60
2021/09/10 01:35:25;;;;;;;30.95;18.30;;;18.50;99.90;;;;;;4996691;28;20028;-62
2021/09/10 01:37:50;;;;;;;33.60;19.15;;;18.50;99.90;;;;;;4994258;28;20035;-61
2021/09/10 01:40:16;;;;;;;32.08;17.40;;;18.60;99.90;;;;;;4972663;28;20034;-60
2021/09/10 01:42:42;;;;;;;22.75;15.15;;;18.60;99.90;;;;;;4992321;28;20037;-62
2021/09/10 01:45:10;;;;;;;26.33;17.38;;;18.60;99.90;;;;;;4991936;28;20080;-62
2021/09/10 01:47:36;;;;;;;31.58;17.40;;;18.60;99.90;;;;;;4991360;28;20427;-58
2021/09/10 01:50:04;;;;;;;30.10;17.40;;;18.60;99.90;;;;;;4991992;28;20109;-62
2021/09/10 01:52:29;;;;;;;22.65;16.38;;;18.60;99.90;;;;;;4987334;28;20070;-60
2021/09/10 01:54:55;;;;;;;31.70;17.65;;;18.60;99.90;;;;;;4992070;28;20463;-61
2021/09/10 01:57:21;;;;;;;27.88;17.10;;;18.60;99.90;;;;;;4990824;28;20102;-60
2021/09/10 01:59:46;;;;;;;31.75;17.23;;;18.60;99.90;;;;;;4996894;28;20554;-60
2021/09/10 02:02:12;;;;;;;25.63;15.98;;;18.60;99.90;;;;;;4989834;28;20449;-61
2021/09/10 02:04:38;;;;;;;32.97;16.33;;;18.60;99.90;;;;;;4989578;28;20030;-61
2021/09/10 02:07:07;;;;;;;26.30;15.23;;;18.60;99.90;;;;;;4994739;28;20030;-61
2021/09/10 02:09:33;;;;;;;20.83;14.93;;;18.50;99.90;;;;;;4993705;28;20041;-58
2021/09/10 02:12:03;;;;;;;26.23;16.88;;;18.50;99.90;;;;;;4990857;28;20022;-62
2021/09/10 02:14:29;;;;;;;22.30;14.88;;;18.50;99.90;;;;;;4990670;28;20030;-62
2021/09/10 02:16:54;;;;;;;24.67;16.00;;;18.60;99.90;;;;;;4992070;28;20082;-60
2021/09/10 02:19:20;;;;;;;37.05;16.73;;;18.50;99.90;;;;;;4992109;28;20031;-58
2021/09/10 02:21:46;;;;;;;32.13;17.60;;;18.50;99.90;;;;;;4995600;28;20101;-61
2021/09/10 02:24:11;;;;;;;24.67;16.00;;;18.50;99.90;;;;;;4995823;28;20038;-62
2021/09/10 02:26:37;;;;;;;28.27;17.17;;;18.50;99.90;;;;;;4991100;28;20041;-61
2021/09/10 02:29:03;;;;;;;27.95;16.42;;;18.50;99.90;;;;;;4989075;28;20408;-59
2021/09/10 02:31:29;;;;;;;33.67;18.33;;;18.40;99.90;;;;;;4993813;28;20123;-61
2021/09/10 02:33:55;;;;;;;41.83;18.25;;;18.40;99.90;;;;;;4996218;28;20027;-60
2021/09/10 02:36:21;;;;;;;29.45;16.88;;;18.40;99.90;;;;;;4990724;28;20560;-61
2021/09/10 02:38:46;;;;;;;32.05;18.55;;;18.40;99.90;;;;;;4991839;28;20030;-61
2021/09/10 02:41:13;;;;;;;37.72;19.42;;;18.40;99.90;;;;;;4994820;28;20033;-62
2021/09/10 02:43:38;;;;;;;32.88;18.85;;;18.40;99.90;;;;;;4993065;28;20061;-62
2021/09/10 02:46:04;;;;;;;27.17;18.17;;;18.40;99.90;;;;;;4992970;28;20125;-60
2021/09/10 02:48:29;;;;;;;28.40;17.75;;;18.40;99.90;;;;;;4991622;28;20034;-62
2021/09/10 02:50:55;;;;;;;31.88;17.90;;;18.30;99.90;;;;;;4991955;28;20037;-62
2021/09/10 02:53:21;;;;;;;35.03;17.27;;;18.30;99.90;;;;;;4994161;28;20022;-59
2021/09/10 02:55:46;;;;;;;22.95;15.98;;;18.30;99.90;;;;;;4991439;28;20050;-62
2021/09/10 02:58:12;;;;;;;32.05;16.88;;;18.30;99.90;;;;;;4987086;28;20026;-62
2021/09/10 03:00:37;;;;;;;23.40;15.90;;;18.30;99.90;;;;;;4991620;28;20044;-63
2021/09/10 03:03:03;;;;;;;27.35;16.90;;;18.30;99.90;;;;;;4987330;28;20040;-62
2021/09/10 03:05:29;;;;;;;29.73;15.27;;;18.30;99.90;;;;;;4989043;28;20068;-62
2021/09/10 03:07:57;;;;;;;31.67;17.42;;;18.20;99.90;;;;;;4990203;28;20041;-61
2021/09/10 03:10:22;;;;;;;24.35;16.48;;;18.20;99.90;;;;;;4995290;28;20042;-60
2021/09/10 03:12:48;;;;;;;27.35;16.77;;;18.20;99.90;;;;;;4992964;28;20030;-59
2021/09/10 03:15:13;;;;;;;22.38;15.45;;;18.20;99.90;;;;;;4995321;28;20037;-62
2021/09/10 03:17:40;;;;;;;29.70;16.80;;;18.20;99.90;;;;;;4972763;28;20097;-62
2021/09/10 03:20:06;;;;;;;27.30;16.42;;;18.20;99.90;;;;;;4991465;28;20482;-61
2021/09/10 03:22:32;;;;;;;31.10;16.15;;;18.20;99.90;;;;;;4992212;28;20038;-60
2021/09/10 03:24:57;;;;;;;23.40;17.52;;;18.30;99.90;;;;;;4993123;28;20085;-58
2021/09/10 03:27:23;;;;;;;30.23;17.50;;;18.30;99.90;;;;;;4988751;28;20033;-63
2021/09/10 03:29:49;;;;;;;27.38;15.98;;;18.30;99.90;;;;;;4990497;28;20038;-60
2021/09/10 03:32:14;;;;;;;26.05;17.52;;;18.30;99.90;;;;;;4989133;28;20038;-61
2021/09/10 03:34:40;;;;;;;26.98;18.02;;;18.20;99.90;;;;;;4988229;28;20109;-60
2021/09/10 03:37:06;;;;;;;27.77;17.20;;;18.20;99.90;;;;;;4990004;28;20142;-60
2021/09/10 03:39:32;;;;;;;25.83;16.70;;;18.20;99.90;;;;;;4991017;28;20026;-60
2021/09/10 03:41:58;;;;;;;29.02;16.42;;;18.20;99.90;;;;;;4988658;28;20043;-61
2021/09/10 03:44:23;;;;;;;24.40;17.30;;;18.20;99.90;;;;;;4987848;28;20038;-62
2021/09/10 03:46:49;;;;;;;22.80;16.17;;;18.20;99.90;;;;;;4990540;28;20034;-62
2021/09/10 03:49:14;;;;;;;26.80;16.85;;;18.20;99.90;;;;;;4989904;28;20033;-59
2021/09/10 03:51:40;;;;;;;21.67;16.30;;;18.20;99.90;;;;;;4990831;28;20034;-61
2021/09/10 03:54:05;;;;;;;28.48;16.10;;;18.20;99.90;;;;;;4992904;28;20033;-61
2021/09/10 03:56:31;;;;;;;24.45;15.60;;;18.20;99.90;;;;;;4994492;28;20093;-59
2021/09/10 03:58:56;;;;;;;25.45;15.07;;;18.20;99.90;;;;;;4989570;28;20120;-61
2021/09/10 04:01:22;;;;;;;23.80;15.30;;;18.20;99.90;;;;;;4988992;28;20035;-61
2021/09/10 04:03:48;;;;;;;20.38;14.57;;;18.20;99.90;;;;;;4989011;28;20450;-59
2021/09/10 04:06:13;;;;;;;23.45;16.67;;;18.20;99.90;;;;;;4987323;28;20042;-59
2021/09/10 04:08:39;;;;;;;29.67;16.58;;;18.10;99.90;;;;;;4989500;28;20036;-57
2021/09/10 04:11:05;;;;;;;23.90;15.55;;;18.10;99.90;;;;;;4994224;28;20042;-59
2021/09/10 04:13:30;;;;;;;21.52;15.18;;;18.10;99.90;;;;;;4989504;28;20030;-60
2021/09/10 04:15:56;;;;;;;19.73;15.13;;;18.10;99.90;;;;;;4993142;28;20037;-60
2021/09/10 04:18:21;;;;;;;29.42;15.88;;;18.10;99.90;;;;;;4971515;28;20449;-61
2021/09/10 04:20:47;;;;;;;18.75;13.70;;;18.00;99.90;;;;;;4988976;28;20033;-62
2021/09/10 04:23:13;;;;;;;24.35;14.85;;;18.00;99.90;;;;;;4997903;28;20561;-56
2021/09/10 04:25:38;;;;;;;21.55;15.45;;;18.10;99.90;;;;;;4991456;28;20521;-61
2021/09/10 04:28:04;;;;;;;18.45;12.98;;;18.00;99.90;;;;;;4991861;28;20076;-61
2021/09/10 04:30:30;;;;;;;20.15;12.68;;;18.10;99.90;;;;;;4971815;28;20033;-62
2021/09/10 04:32:56;;;;;;;16.10;13.23;;;18.10;99.90;;;;;;4985544;28;20393;-61
2021/09/10 04:35:21;;;;;;;19.92;12.90;;;18.00;99.90;;;;;;4987902;28;20039;-60
2021/09/10 04:37:47;;;;;;;20.73;13.35;;;18.10;99.90;;;;;;4993226;28;20044;-61
2021/09/10 04:40:13;;;;;;;16.75;12.50;;;18.10;99.90;;;;;;4994202;28;20048;-59
2021/09/10 04:42:39;;;;;;;20.45;13.20;;;18.10;99.90;;;;;;4997563;28;20025;-62
2021/09/10 04:45:05;;;;;;;23.15;15.00;;;18.00;99.90;;;;;;4991323;28;20105;-60
2021/09/10 04:47:31;;;;;;;30.27;16.50;;;18.00;99.90;;;;;;4993268;28;20045;-60
2021/09/10 04:49:56;;;;;;;24.95;16.30;;;18.00;99.90;;;;;;4992754;28;20037;-59
2021/09/10 04:52:22;;;;;;;23.20;14.70;;;18.00;99.90;;;;;;4990858;28;20038;-62
2021/09/10 04:54:47;;;;;;;20.40;14.38;;;18.10;99.90;;;;;;4996140;28;20501;-62
2021/09/10 04:57:13;;;;;;;25.70;16.52;;;18.00;99.90;;;;;;4997944;28;20033;-60
2021/09/10 04:59:38;;;;;;;23.30;15.30;;;18.00;99.90;;;;;;4991798;28;20018;-60
2021/09/10 05:02:04;;;;;;;22.48;15.98;;;18.10;99.90;;;;;;4990404;28;20490;-62
2021/09/10 05:04:30;;;;;;;22.35;16.52;;;18.10;99.90;;;;;;4989902;28;20056;-62
2021/09/10 05:06:55;;;;;;;21.38;15.75;;;18.00;99.90;;;;;;4992416;28;20030;-60
2021/09/10 05:09:21;;;;;;;26.48;16.15;;;18.00;99.90;;;;;;4973293;28;20113;-61
2021/09/10 05:11:47;;;;;;;25.58;14.95;;;18.00;99.90;;;;;;4993811;28;20716;-62
2021/09/10 05:14:14;;;;;;;22.55;14.00;;;18.10;99.90;;;;;;4996078;28;20097;-61
2021/09/10 05:16:39;;;;;;;21.20;13.35;;;18.00;99.90;;;;;;4993533;28;20033;-61
2021/09/10 05:19:05;;;;;;;25.02;14.82;;;18.10;99.90;;;;;;4991657;28;20394;-61
2021/09/10 05:21:31;;;;;;;23.02;14.88;;;18.00;99.90;;;;;;4991920;28;20555;-61
2021/09/10 05:23:57;;;;;;;23.02;14.10;;;18.00;99.90;;;;;;4990839;28;20039;-59
2021/09/10 05:26:22;;;;;;;23.50;14.23;;;18.00;99.90;;;;;;4991149;28;20395;-59
2021/09/10 05:28:48;;;;;;;23.90;14.65;;;18.00;99.90;;;;;;4991379;28;20034;-60
2021/09/10 05:31:14;;;;;;;23.90;14.77;;;17.90;99.90;;;;;;4991238;28;20036;-58
2021/09/10 05:33:39;;;;;;;24.38;15.95;;;17.90;99.90;;;;;;4991314;28;20030;-60
2021/09/10 05:36:05;;;;;;;26.13;15.45;;;17.90;99.90;;;;;;4989904;28;20049;-61
2021/09/10 05:38:31;;;;;;;28.55;16.55;;;17.90;99.90;;;;;;4990423;28;20042;-60
2021/09/10 05:40:56;;;;;;;21.45;15.05;;;17.90;99.90;;;;;;4985215;28;20061;-60
2021/09/10 05:43:22;;;;;;;27.27;16.20;;;17.90;99.90;;;;;;4991723;28;20046;-60
2021/09/10 05:45:48;;;;;;;20.85;14.93;;;17.90;99.90;;;;;;4991649;28;20031;-61
2021/09/10 05:48:18;;;;;;;28.20;15.65;;;17.90;99.90;;;;;;4991594;28;20062;-62
2021/09/10 05:50:44;;;;;;;22.13;15.30;;;17.90;99.90;;;;;;4973209;28;20034;-59
2021/09/10 05:53:10;;;;;;;22.75;15.20;;;17.90;99.90;;;;;;4994825;28;20638;-61
2021/09/10 05:55:35;;;;;;;27.42;16.42;;;17.90;99.90;;;;;;4995158;28;20037;-61
2021/09/10 05:58:01;;;;;;;23.40;16.05;;;17.90;99.90;;;;;;4994207;28;20022;-62
2021/09/10 06:00:27;;;;;;;24.85;16.45;;;17.90;99.90;;;;;;4991935;28;20030;-60
2021/09/10 06:02:53;;;;;;;26.85;17.17;;;17.90;99.90;;;;;;4991457;28;20054;-62
2021/09/10 06:05:19;;;;;;;24.38;15.55;;;18.00;99.90;;;;;;4988343;28;20107;-60
2021/09/10 06:07:44;;;;;;;24.77;15.32;;;18.00;99.90;;;;;;4991463;28;20058;-58
2021/09/10 06:10:12;;;;;;;23.23;15.20;;;18.00;99.90;;;;;;4991946;28;20037;-60
2021/09/10 06:12:38;;;;;;;23.55;16.05;;;18.10;99.90;;;;;;4991551;28;20305;-61
2021/09/10 06:15:04;;;;;;;23.10;16.35;;;18.10;99.90;;;;;;4991760;28;20494;-62
2021/09/10 06:17:29;;;;;;;22.90;15.60;;;18.10;99.90;;;;;;4992113;28;20022;-62
2021/09/10 06:19:55;;;;;;;25.15;17.95;;;18.20;99.90;;;;;;4991856;28;20034;-62
2021/09/10 06:22:21;;;;;;;23.60;15.40;;;18.30;99.90;;;;;;4991268;28;20030;-61
2021/09/10 06:24:46;;;;;;;27.83;16.20;;;18.30;99.90;;;;;;4991819;28;20509;-61
2021/09/10 06:27:12;;;;;;;28.33;14.75;;;18.40;99.90;;;;;;4991871;28;20030;-61
2021/09/10 06:29:37;;;;;;;25.20;15.63;;;18.40;99.90;;;;;;4991694;28;20030;-60
2021/09/10 06:32:03;;;;;;;24.35;16.58;;;18.50;99.90;;;;;;4991456;28;20113;-61
2021/09/10 06:34:29;;;;;;;27.20;16.00;;;18.60;99.90;;;;;;4990585;28;20069;-61
2021/09/10 06:36:55;;;;;;;22.50;15.60;;;18.60;99.90;;;;;;4991439;28;20031;-60
2021/09/10 06:39:21;;;;;;;36.47;17.08;;;18.70;99.90;;;;;;4991274;28;20030;-61
2021/09/10 06:41:46;;;;;;;23.70;15.40;;;18.80;99.90;;;;;;4991167;28;20069;-61
2021/09/10 06:44:12;;;;;;;23.05;14.70;;;18.90;99.90;;;;;;4992936;28;20455;-60
2021/09/10 06:46:38;;;;;;;22.90;15.60;;;19.00;99.90;;;;;;4995215;28;20027;-60
2021/09/10 06:49:04;;;;;;;19.30;15.23;;;19.10;99.90;;;;;;4991253;28;20029;-61
2021/09/10 06:51:30;;;;;;;23.27;16.85;;;19.20;99.90;;;;;;4991180;28;20088;-59
2021/09/10 06:53:56;;;;;;;25.45;16.33;;;19.40;99.90;;;;;;4990669;28;20105;-60
2021/09/10 06:56:22;;;;;;;26.40;16.23;;;19.50;99.90;;;;;;4991128;28;20065;-61
2021/09/10 06:58:47;;;;;;;23.50;15.30;;;19.60;99.90;;;;;;4990565;28;20172;-61
2021/09/10 07:01:13;;;;;;;19.23;14.40;;;19.70;99.90;;;;;;4990928;28;20034;-59
2021/09/10 07:03:39;;;;;;;18.20;11.95;;;19.80;99.90;;;;;;5022420;23;20406;-61
2021/09/10 07:06:06;;;;;;;17.17;10.95;;;19.90;99.90;;;;;;4990740;28;20464;-61
2021/09/10 07:08:31;;;;;;;11.85;9.18;;;20.00;99.90;;;;;;4997807;28;20019;-61
2021/09/10 07:10:57;;;;;;;16.38;9.98;;;20.10;99.90;;;;;;4996256;28;20038;-61
2021/09/10 07:13:23;;;;;;;10.70;8.43;;;20.20;99.90;;;;;;5010887;28;20421;-61
2021/09/10 07:15:49;;;;;;;12.95;8.63;;;20.20;99.90;;;;;;5011733;28;20080;-62
2021/09/10 07:18:14;;;;;;;16.15;9.25;;;20.30;99.90;;;;;;5011627;28;20026;-61
2021/09/10 07:20:40;;;;;;;9.85;8.77;;;20.30;99.90;;;;;;5007745;28;20026;-61
2021/09/10 07:23:05;;;;;;;16.40;8.73;;;20.30;99.90;;;;;;4991652;28;20639;-61
2021/09/10 07:25:31;;;;;;;10.98;7.10;;;20.30;99.90;;;;;;4998698;28;20030;-61
2021/09/10 07:27:56;;;;;;;16.63;10.93;;;20.40;99.90;;;;;;4981323;28;20030;-61
2021/09/10 07:30:22;;;;;;;10.52;8.30;;;20.40;99.90;;;;;;4998772;28;20057;-61
2021/09/10 07:32:47;;;;;;;12.45;8.45;;;20.40;99.90;;;;;;5005840;28;20030;-59
2021/09/10 07:35:13;;;;;;;11.15;7.53;;;20.40;99.90;;;;;;5006837;28;20029;-61
2021/09/10 07:37:40;;;;;;;11.77;8.65;;;20.50;99.90;;;;;;4992094;28;20026;-61
2021/09/10 07:40:06;;;;;;;13.10;8.98;;;20.50;99.90;;;;;;4993723;28;20100;-61
2021/09/10 07:42:32;;;;;;;13.07;7.78;;;20.50;99.90;;;;;;4997591;28;20422;-62
2021/09/10 07:44:58;;;;;;;12.55;8.10;;;20.60;99.90;;;;;;5007429;28;20088;-61
2021/09/10 07:47:23;;;;;;;11.75;8.02;;;20.60;99.90;;;;;;4998823;28;20038;-60
2021/09/10 07:49:49;;;;;;;11.73;8.45;;;20.60;99.90;;;;;;5004147;28;20516;-61
2021/09/10 07:52:14;;;;;;;9.73;8.20;;;20.60;99.90;;;;;;4997484;28;20122;-60
2021/09/10 07:54:40;;;;;;;10.88;7.75;;;20.70;99.90;;;;;;5002995;28;20034;-60
2021/09/10 07:57:05;;;;;;;10.48;7.50;;;20.80;99.90;;;;;;5011361;28;20022;-60
2021/09/10 07:59:31;;;;;;;13.35;8.20;;;20.80;99.90;;;;;;4997881;28;20030;-61
2021/09/10 08:01:57;;;;;;;16.92;7.38;;;20.90;99.90;;;;;;5004289;28;20042;-61
2021/09/10 08:04:24;;;;;;;13.00;6.53;;;21.00;99.90;;;;;;4994696;28;20062;-61
2021/09/10 08:06:49;;;;;;;10.75;7.15;;;21.00;99.90;;;;;;4994702;28;20034;-61
2021/09/10 08:09:15;;;;;;;14.68;7.15;;;21.20;99.90;;;;;;4995749;28;20045;-61
2021/09/10 08:11:40;;;;;;;14.43;7.97;;;21.30;99.90;;;;;;4999454;28;20037;-59
2021/09/10 08:14:10;;;;;;;11.43;6.55;;;21.30;99.90;;;;;;4997319;28;20014;-61
2021/09/10 08:16:36;;;;;;;10.85;6.70;;;21.40;99.90;;;;;;5010154;28;20366;-61
2021/09/10 08:19:02;;;;;;;8.27;6.10;;;21.40;99.90;;;;;;5008084;28;20058;-61
2021/09/10 08:21:28;;;;;;;8.63;5.70;;;21.50;99.90;;;;;;5007107;28;20397;-61
2021/09/10 08:23:53;;;;;;;18.27;6.80;;;21.60;99.90;;;;;;5008474;28;20108;-61
2021/09/10 08:26:19;;;;;;;13.73;5.70;;;21.60;99.90;;;;;;5002084;28;20104;-61
2021/09/10 08:28:45;;;;;;;6.88;5.57;;;21.60;99.90;;;;;;4995489;28;20035;-61
2021/09/10 08:31:10;;;;;;;11.40;6.38;;;21.70;99.90;;;;;;4995572;28;20041;-60
2021/09/10 08:33:36;;;;;;;8.10;5.80;;;21.70;99.90;;;;;;5004337;28;20022;-61
2021/09/10 08:36:02;;;;;;;9.30;6.18;;;21.80;99.90;;;;;;5008351;28;20053;-61
2021/09/10 08:38:28;;;;;;;8.63;5.03;;;21.90;99.90;;;;;;5007059;28;20520;-61
2021/09/10 08:40:57;;;;;;;11.10;6.32;;;21.90;99.90;;;;;;5009956;28;20057;-61
2021/09/10 08:43:24;;;;;;;7.75;5.60;;;22.00;99.90;;;;;;4994896;28;20509;-61
2021/09/10 08:45:51;;;;;;;9.57;4.75;;;22.00;99.90;;;;;;5008317;28;20034;-61
2021/09/10 08:48:17;;;;;;;9.90;5.72;;;22.10;99.90;;;;;;5001087;28;20077;-60
2021/09/10 08:50:43;;;;;;;7.85;5.05;;;22.30;99.90;;;;;;4998100;28;20032;-60
2021/09/10 08:53:09;;;;;;;8.27;3.95;;;22.40;99.90;;;;;;5003025;28;20105;-61
2021/09/10 08:55:35;;;;;;;10.90;4.57;;;22.70;99.90;;;;;;5011177;28;20025;-59
2021/09/10 08:58:00;;;;;;;8.63;5.07;;;22.90;99.90;;;;;;5007364;28;20026;-60
2021/09/10 09:00:31;;;;;;;6.70;4.43;;;23.10;99.90;;;;;;5004349;28;20026;-60
2021/09/10 09:03:04;;;;;;;10.60;4.70;;;23.20;99.90;;;;;;5004391;28;20033;-59
2021/09/10 09:05:31;;;;;;;6.38;3.95;;;23.30;99.90;;;;;;5007557;28;20029;-60
2021/09/10 09:08:19;;;;;;;8.10;4.75;;;23.40;99.90;;;;;;5011241;28;20025;-61
2021/09/10 09:11:02;;;;;;;7.72;4.15;;;23.50;99.90;;;;;;4998423;28;20041;-61
2021/09/10 09:13:40;;;;;;;5.50;3.55;;;23.60;99.90;;;;;;4994146;28;20022;-61
2021/09/10 09:16:27;;;;;;;13.05;3.45;;;23.70;99.90;;;;;;4995749;28;20027;-61
2021/09/10 09:18:55;;;;;;;6.38;4.30;;;23.80;99.90;;;;;;5008884;28;20109;-61
2021/09/10 09:21:26;;;;;;;8.90;3.80;;;23.90;99.90;;;;;;4996976;28;20121;-61
2021/09/10 09:23:53;;;;;;;7.85;3.85;;;24.00;99.90;;;;;;5004675;28;20059;-61
2021/09/10 09:26:20;;;;;;;10.48;3.97;;;24.10;99.90;;;;;;5012312;28;20066;-61
2021/09/10 09:28:47;;;;;;;10.23;4.25;;;24.10;99.90;;;;;;5006593;28;20037;-61
2021/09/10 09:31:17;;;;;;;10.32;5.05;;;24.20;99.90;;;;;;5013335;28;20398;-61
2021/09/10 09:33:45;;;;;;;7.68;4.50;;;24.20;99.90;;;;;;5005294;28;20021;-61
2021/09/10 09:36:13;;;;;;;13.18;4.38;;;24.00;99.90;;;;;;5013351;28;20056;-61
2021/09/10 09:38:41;;;;;;;12.38;4.65;;;23.80;99.90;;;;;;5007483;28;20097;-60
2021/09/10 09:41:15;;;;;;;9.38;5.55;;;23.70;99.90;;;;;;4999973;28;20087;-60
2021/09/10 09:43:53;;;;;;;13.57;5.53;;;23.60;99.90;;;;;;4998120;28;20022;-61
2021/09/10 09:46:22;;;;;;;12.77;5.70;;;23.70;99.90;;;;;;5009365;28;20030;-60
2021/09/10 09:48:50;;;;;;;10.98;5.53;;;23.70;99.90;;;;;;4999939;28;20038;-61
2021/09/10 09:51:19;;;;;;;12.38;5.40;;;23.50;99.90;;;;;;4995013;28;20062;-61
2021/09/10 09:53:46;;;;;;;18.60;5.38;;;23.60;99.90;;;;;;4999847;28;20030;-61
2021/09/10 09:56:12;;;;;;;8.52;5.03;;;23.70;99.90;;;;;;4998957;28;20034;-61
2021/09/10 09:58:39;;;;;;;9.88;4.90;;;23.60;99.90;;;;;;5004361;28;20029;-62
2021/09/10 10:01:05;;;;;;;15.18;5.25;;;23.70;99.90;;;;;;5003890;28;20699;-60
2021/09/10 10:03:31;;;;;;;8.77;4.65;;;23.70;99.90;;;;;;5010303;28;20045;-61
2021/09/10 10:06:02;;;;;;;7.38;4.07;;;23.70;99.90;;;;;;5005420;28;20038;-61
2021/09/10 10:08:51;;;;;;;7.55;3.90;;;23.80;99.90;;;;;;5009423;28;20033;-61
2021/09/10 10:11:20;;;;;;;4.38;3.20;;;23.60;99.90;;;;;;4999815;28;20018;-63
2021/09/10 10:13:47;;;;;;;5.88;3.40;;;23.20;99.90;;;;;;5005464;28;20025;-61
2021/09/10 10:16:39;;;;;;;5.47;2.45;;;23.20;99.90;;;;;;4993600;28;20142;-62
2021/09/10 10:19:21;;;;;;;3.90;2.45;;;23.00;99.90;;;;;;5002532;28;20096;-63
2021/09/10 10:21:55;;;;;;;3.08;1.27;;;22.90;99.90;;;;;;5008386;28;20060;-62
2021/09/10 10:24:37;;;;;;;;;;;22.50;99.90;;;;;;5011466;28;20105;-62
2021/09/10 10:27:24;;;;;;;4.85;1.70;;;22.10;99.90;;;;;;5006076;28;19912;-63
2021/09/10 10:29:50;;;;;;;3.10;1.73;;;21.90;99.90;;;;;;5010057;28;20026;-63
2021/09/10 10:32:44;;;;;;;5.90;1.80;;;21.90;99.90;;;;;;4996407;28;20042;-63
2021/09/10 10:35:39;;;;;;;5.28;1.80;;;21.80;99.90;;;;;;4996911;28;20485;-62
2021/09/10 10:38:10;;;;;;;3.30;1.40;;;21.70;99.90;;;;;;4983792;28;20528;-62
2021/09/10 10:40:45;;;;;;;4.93;1.90;;;21.90;99.90;;;;;;4992536;28;20018;-62
2021/09/10 10:43:25;;;;;;;2.95;1.40;;;21.90;99.90;;;;;;4993677;28;20030;-62
2021/09/10 10:46:09;;;;;;;3.28;1.55;;;22.10;99.90;;;;;;5001429;28;20060;-62
2021/09/10 10:48:42;;;;;;;4.47;1.55;;;22.00;99.90;;;;;;4999174;28;20517;-62
2021/09/10 10:51:20;;;;;;;5.93;2.10;;;21.90;99.90;;;;;;5004395;28;20034;-62
2021/09/10 10:53:45;;;;;;;3.72;1.48;;;22.00;99.90;;;;;;5004074;28;20036;-61
2021/09/10 10:56:26;;;;;;;5.00;2.15;;;21.90;99.90;;;;;;5004736;28;20109;-62
2021/09/10 10:59:15;;;;;;;5.47;2.30;;;21.80;99.90;;;;;;5010199;28;20044;-62
2021/09/10 11:02:15;;;;;;;4.60;2.17;;;21.80;99.90;;;;;;5004829;28;20044;-62
2021/09/10 11:04:42;;;;;;;3.97;1.65;;;21.70;99.90;;;;;;5004353;28;20185;-62
2021/09/10 11:07:08;;;;;;;2.53;1.80;;;21.70;99.90;;;;;;4997650;28;20040;-61
2021/09/10 11:09:34;;;;;;;3.03;1.80;;;21.80;99.90;;;;;;5002352;28;20106;-62
2021/09/10 11:11:59;;;;;;;3.00;1.80;;;21.80;99.90;;;;;;5000951;28;20113;-62
2021/09/10 11:14:37;;;;;;;4.63;1.95;;;22.00;99.90;;;;;;5009475;28;20026;-62
2021/09/10 11:17:13;;;;;;;2.60;1.80;;;22.10;99.90;;;;;;5001401;28;20018;-62
2021/09/10 11:19:45;;;;;;;5.75;2.05;;;22.30;99.90;;;;;;5007554;28;20029;-62
2021/09/10 11:22:10;;;;;;;2.83;2.00;;;22.50;99.90;;;;;;4998685;28;20077;-62
2021/09/10 11:24:36;;;;;;;4.53;1.90;;;22.50;99.90;;;;;;4998427;28;20445;-62
2021/09/10 11:27:02;;;;;;;5.22;1.77;;;22.60;99.90;;;;;;4998865;28;20038;-62
2021/09/10 11:29:37;;;;;;;4.38;2.25;;;22.80;99.90;;;;;;5002838;28;20061;-62
2021/09/10 11:32:25;;;;;;;3.88;1.98;;;23.00;99.90;;;;;;4995197;28;20037;-62
2021/09/10 11:34:53;;;;;;;3.80;1.92;;;23.20;99.90;;;;;;4997827;28;20097;-62
2021/09/10 11:37:32;;;;;;;2.58;2.08;;;23.40;99.90;;;;;;4991734;28;20073;-62
2021/09/10 11:40:00;;;;;;;5.45;3.00;;;23.50;99.90;;;;;;4999253;28;20017;-62
2021/09/10 11:42:37;;;;;;;3.72;2.22;;;23.50;99.90;;;;;;5009517;28;20565;-62
2021/09/10 11:45:13;;;;;;;3.75;2.45;;;23.50;99.90;;;;;;5002397;28;20062;-62
2021/09/10 11:47:41;;;;;;;6.60;2.97;;;23.60;99.90;;;;;;5004825;28;20056;-62
2021/09/10 11:50:09;;;;;;;8.50;3.67;;;23.70;99.90;;;;;;5007484;28;20038;-62
2021/09/10 11:52:37;;;;;;;12.80;3.78;;;23.80;99.90;;;;;;4999195;28;20106;-62
2021/09/10 11:55:18;;;;;;;6.50;3.50;;;23.90;99.90;;;;;;5002305;28;20026;-62
2021/09/10 11:57:44;;;;;;;5.22;3.17;;;23.90;99.90;;;;;;5005089;28;20022;-60
2021/09/10 12:00:23;;;;;;;5.78;3.80;;;24.00;99.90;;;;;;5000599;28;20101;-61
2021/09/10 12:02:57;;;;;;;4.75;3.00;;;24.30;99.90;;;;;;5002901;28;20038;-60
2021/09/10 12:05:23;;;;;;;6.97;3.53;;;24.60;99.90;;;;;;5001331;28;20017;-61
2021/09/10 12:07:52;;;;;;;7.63;3.75;;;24.90;99.90;;;;;;5006687;28;20049;-60
2021/09/10 12:10:34;;;;;;;4.50;3.25;;;24.80;99.90;;;;;;4998176;28;20520;-60
2021/09/10 12:13:33;;;;;;;3.55;2.50;;;24.70;99.90;;;;;;4995066;28;20034;-61
2021/09/10 12:16:14;;;;;;;7.35;2.85;;;24.50;99.90;;;;;;5009769;28;20409;-62
2021/09/10 12:19:02;;;;;;;3.75;3.05;;;24.40;99.90;;;;;;4991712;28;20023;-62
2021/09/10 12:21:29;;;;;;;7.20;3.03;;;24.20;99.90;;;;;;4995581;28;20393;-62
2021/09/10 12:24:10;;;;;;;5.63;3.45;;;24.10;99.90;;;;;;5008183;28;20092;-62
2021/09/10 12:26:53;;;;;;;4.18;3.13;;;23.90;99.90;;;;;;5001762;28;20026;-62
2021/09/10 12:29:25;;;;;;;3.63;3.03;;;23.70;99.90;;;;;;4996940;28;20042;-62
2021/09/10 12:31:52;;;;;;;7.28;2.95;;;23.50;99.90;;;;;;5002325;28;20414;-62
2021/09/10 12:34:18;;;;;;;5.65;2.83;;;23.30;99.90;;;;;;4991406;28;20045;-61
2021/09/10 12:36:46;;;;;;;5.32;1.98;;;23.10;99.90;;;;;;4992665;28;20022;-60
2021/09/10 12:39:13;;;;;;;3.47;1.92;;;23.00;99.90;;;;;;4996926;28;20509;-60